Time;durP1;ratioP1;P1;durP2;ratioP2;P2;SDS_P1;SDS_P2;PMS_P1;PMS_P2;Temp;Humidity;BMP_temperature;BMP_pressure;BME280_temperature;BME280_humidity;BME280_pressure;Samples;Min_cycle;Max_cycle;Signal;HPM_P1;HPM_P2
2021/12/14 00:01:35;;;;;;;3.10;2.72;;;12.30;71.00;;;;;;5030058;28;20065;-47
2021/12/14 00:04:11;;;;;;;3.63;3.28;;;12.30;71.00;;;;;;5031491;28;20038;-52
2021/12/14 00:06:41;;;;;;;4.32;3.40;;;12.20;70.90;;;;;;5011459;28;20646;-48
2021/12/14 00:09:11;;;;;;;3.65;3.30;;;12.20;71.00;;;;;;5014480;28;20046;-48
2021/12/14 00:15:03;;;;;;;4.13;3.30;;;12.20;71.00;;;;;;5009239;28;20112;-51
2021/12/14 00:17:03;;;;;;;3.97;3.47;;;12.20;71.10;;;;;;5014354;28;20568;-49
2021/12/14 00:19:29;;;;;;;4.30;3.50;;;12.20;71.10;;;;;;5004789;28;20108;-49
2021/12/14 00:22:03;;;;;;;3.15;2.88;;;12.20;71.20;;;;;;5031102;28;20095;-52
2021/12/14 00:24:32;;;;;;;4.53;3.10;;;12.10;71.20;;;;;;5011187;28;20038;-49
2021/12/14 00:27:04;;;;;;;5.45;3.38;;;12.10;71.20;;;;;;5024072;28;20442;-49
2021/12/14 00:29:37;;;;;;;3.83;3.17;;;12.10;71.30;;;;;;5022832;28;20049;-51
2021/12/14 00:32:08;;;;;;;4.38;3.80;;;12.10;71.40;;;;;;5012688;28;20099;-48
2021/12/14 00:34:41;;;;;;;5.07;3.55;;;12.10;71.60;;;;;;5015120;28;20045;-49
2021/12/14 00:37:19;;;;;;;4.00;3.53;;;12.10;71.70;;;;;;4997297;28;20054;-51
2021/12/14 00:39:48;;;;;;;4.43;3.13;;;12.10;71.90;;;;;;4996599;28;20049;-49
2021/12/14 00:42:16;;;;;;;3.55;3.25;;;12.00;72.00;;;;;;5004445;28;20042;-52
2021/12/14 00:44:44;;;;;;;3.80;2.78;;;12.00;72.20;;;;;;5010857;28;20041;-49
2021/12/14 00:47:11;;;;;;;4.93;4.35;;;12.00;72.30;;;;;;5001063;28;20413;-48
2021/12/14 00:49:39;;;;;;;4.03;3.38;;;12.00;72.50;;;;;;5011313;28;20050;-49
2021/12/14 00:52:08;;;;;;;4.65;3.90;;;11.90;72.50;;;;;;4992573;28;20046;-52
2021/12/14 00:54:36;;;;;;;4.63;2.97;;;11.90;72.60;;;;;;5018600;28;20045;-50
2021/12/14 00:57:06;;;;;;;3.60;2.70;;;11.90;72.60;;;;;;5024853;28;20038;-51
2021/12/14 00:59:35;;;;;;;3.72;3.10;;;11.90;72.70;;;;;;5012461;28;20132;-49
2021/12/14 01:02:09;;;;;;;4.25;3.28;;;11.90;72.70;;;;;;4989093;28;20141;-51
2021/12/14 01:04:44;;;;;;;5.43;3.22;;;11.90;72.60;;;;;;5013330;28;20472;-49
2021/12/14 01:07:12;;;;;;;4.97;3.10;;;11.90;72.60;;;;;;5021364;28;20053;-51
2021/12/14 01:09:44;;;;;;;3.70;3.05;;;11.90;72.60;;;;;;5009089;28;20041;-48
2021/12/14 01:12:19;;;;;;;4.15;2.92;;;11.90;72.70;;;;;;5000308;28;20061;-50
2021/12/14 01:15:11;;;;;;;4.15;3.38;;;11.90;72.60;;;;;;5001006;28;20115;-48
2021/12/14 01:17:53;;;;;;;4.45;3.53;;;11.90;72.60;;;;;;5015436;28;20041;-52
2021/12/14 01:20:21;;;;;;;3.95;3.38;;;11.90;72.60;;;;;;5006102;28;20038;-50
2021/12/14 01:22:58;;;;;;;4.82;3.88;;;11.90;72.60;;;;;;5018555;28;20443;-49
2021/12/14 01:25:36;;;;;;;4.43;3.65;;;11.90;72.70;;;;;;5001015;28;20069;-49
2021/12/14 01:28:07;;;;;;;4.50;3.90;;;11.80;72.60;;;;;;4976416;28;20513;-48
2021/12/14 01:31:14;;;;;;;6.47;4.40;;;11.80;72.70;;;;;;4997508;28;20056;-48
2021/12/14 01:33:44;;;;;;;5.35;4.43;;;11.80;72.70;;;;;;5003671;28;20049;-48
2021/12/14 01:36:30;;;;;;;6.38;4.85;;;11.80;72.70;;;;;;5008487;28;20582;-50
2021/12/14 01:42:01;;;;;;;5.25;4.60;;;11.80;72.60;;;;;;4993920;28;20148;-49
2021/12/14 01:44:35;;;;;;;7.38;5.13;;;11.80;72.70;;;;;;5002452;28;20041;-52
2021/12/14 01:47:10;;;;;;;7.15;4.75;;;11.80;72.80;;;;;;4992828;28;20053;-51
2021/12/14 01:50:00;;;;;;;7.55;4.88;;;11.80;72.90;;;;;;4976098;28;20148;-53
2021/12/14 01:52:39;;;;;;;7.78;5.10;;;11.80;72.90;;;;;;5002702;28;20050;-50
2021/12/14 01:55:15;;;;;;;7.43;5.03;;;11.80;72.90;;;;;;5012194;28;20152;-48
2021/12/14 01:57:43;;;;;;;9.77;6.30;;;11.80;73.50;;;;;;5009237;28;20042;-48
2021/12/14 02:00:17;;;;;;;7.78;5.68;;;11.90;72.90;;;;;;4989635;28;20125;-48
2021/12/14 02:02:48;;;;;;;8.73;5.70;;;11.80;72.90;;;;;;5021427;28;20562;-49
2021/12/14 02:05:26;;;;;;;10.43;5.97;;;11.80;72.90;;;;;;5029621;28;20042;-48
2021/12/14 02:07:56;;;;;;;6.30;5.07;;;11.80;72.90;;;;;;5003511;28;20125;-52
2021/12/14 02:10:32;;;;;;;9.68;5.95;;;11.80;73.00;;;;;;4992408;28;20050;-54
2021/12/14 02:13:00;;;;;;;8.18;5.80;;;11.90;73.00;;;;;;5003565;28;20551;-49
2021/12/14 02:15:34;;;;;;;8.95;5.85;;;11.80;73.00;;;;;;5011022;28;20104;-49
2021/12/14 02:18:09;;;;;;;7.55;6.18;;;11.80;73.00;;;;;;4977420;28;20418;-49
2021/12/14 02:20:38;;;;;;;8.55;5.82;;;11.80;73.00;;;;;;5017469;28;20045;-53
2021/12/14 02:23:07;;;;;;;10.48;7.03;;;11.80;73.70;;;;;;5001974;28;20034;-49
2021/12/14 02:25:34;;;;;;;9.50;7.03;;;11.80;73.00;;;;;;4992507;28;20061;-47
2021/12/14 02:28:07;;;;;;;9.50;6.97;;;11.80;73.10;;;;;;4993904;28;20076;-50
2021/12/14 02:30:38;;;;;;;10.27;6.60;;;11.80;73.20;;;;;;5000742;28;20078;-52
2021/12/14 02:33:21;;;;;;;11.23;7.68;;;11.90;73.20;;;;;;5011509;28;20045;-52
2021/12/14 02:35:50;;;;;;;8.55;6.25;;;11.90;73.30;;;;;;4983440;28;20135;-51
2021/12/14 02:38:18;;;;;;;10.90;6.95;;;11.80;73.00;;;;;;5021677;28;20099;-49
2021/12/14 02:41:01;;;;;;;11.50;7.40;;;11.80;73.20;;;;;;4993391;28;20444;-47
2021/12/14 02:43:47;;;;;;;10.00;7.05;;;11.80;73.40;;;;;;4996263;28;20053;-50
2021/12/14 02:46:35;;;;;;;9.20;6.22;;;11.80;73.50;;;;;;5003824;28;20069;-50
2021/12/14 02:49:06;;;;;;;11.07;6.90;;;11.70;73.50;;;;;;4999069;28;20045;-52
2021/12/14 02:51:37;;;;;;;10.18;7.43;;;11.80;73.50;;;;;;5007596;28;20058;-51
2021/12/14 02:54:16;;;;;;;9.57;6.93;;;11.70;73.50;;;;;;4996507;28;20046;-52
2021/12/14 02:56:56;;;;;;;11.82;8.13;;;11.80;73.60;;;;;;4997464;28;20053;-48
2021/12/14 02:59:28;;;;;;;9.63;6.93;;;11.70;73.60;;;;;;5003301;28;20205;-52
2021/12/14 03:01:57;;;;;;;;;;;11.70;73.60;;;;;;5012080;28;20045;-50
2021/12/14 03:04:24;;;;;;;9.55;6.88;;;11.80;73.80;;;;;;4996270;28;19928;-52
2021/12/14 03:06:55;;;;;;;8.57;7.35;;;11.70;73.40;;;;;;5000991;28;20048;-52
2021/12/14 03:12:08;;;;;;;11.02;7.50;;;11.70;74.00;;;;;;5001940;28;20500;-51
2021/12/14 03:14:37;;;;;;;10.85;7.72;;;11.70;73.90;;;;;;5012387;28;20445;-52
2021/12/14 03:17:04;;;;;;;10.90;7.43;;;11.70;74.00;;;;;;5023606;28;20038;-52
2021/12/14 03:19:33;;;;;;;13.35;8.38;;;11.70;74.00;;;;;;5013947;28;20046;-52
2021/12/14 03:22:20;;;;;;;11.02;7.85;;;11.60;73.90;;;;;;4995550;28;20157;-49
2021/12/14 03:24:47;;;;;;;10.07;7.25;;;11.60;74.30;;;;;;5012603;28;20092;-50
2021/12/14 03:27:14;;;;;;;11.25;7.65;;;11.60;74.10;;;;;;5004115;28;20564;-52
2021/12/14 03:29:41;;;;;;;11.63;8.18;;;11.60;74.20;;;;;;5030793;28;20064;-51
2021/12/14 03:32:08;;;;;;;11.45;7.38;;;11.60;74.30;;;;;;5020674;28;20040;-52
2021/12/14 03:34:40;;;;;;;9.07;7.50;;;11.60;74.30;;;;;;5023527;23;20502;31
2021/12/14 03:37:19;;;;;;;11.93;8.02;;;11.50;74.40;;;;;;4995831;28;20603;-47
2021/12/14 03:39:50;;;;;;;11.65;7.22;;;11.60;75.30;;;;;;5008463;28;20053;-48
2021/12/14 03:42:23;;;;;;;10.70;8.27;;;11.60;74.80;;;;;;5011043;28;20137;-49
2021/12/14 03:44:55;;;;;;;11.93;7.35;;;11.50;74.80;;;;;;4995382;28;20052;-46
2021/12/14 03:47:33;;;;;;;10.02;7.35;;;11.50;74.70;;;;;;5004510;28;20103;-46
2021/12/14 03:50:11;;;;;;;11.32;7.65;;;11.50;74.70;;;;;;5014200;28;20046;-45
2021/12/14 03:52:40;;;;;;;10.73;7.10;;;11.50;75.00;;;;;;5002806;28;20458;-46
2021/12/14 03:55:20;;;;;;;11.48;7.45;;;11.50;74.90;;;;;;5005955;28;20053;-46
2021/12/14 03:57:50;;;;;;;9.85;7.25;;;11.40;75.10;;;;;;4998306;28;20041;-47
2021/12/14 04:00:28;;;;;;;11.32;7.47;;;11.40;75.00;;;;;;5029130;28;20076;-47
2021/12/14 04:02:57;;;;;;;9.80;7.25;;;11.40;75.90;;;;;;5027769;28;20144;-45
2021/12/14 04:05:40;;;;;;;;;;;11.40;75.10;;;;;;5006685;28;20800;-46
2021/12/14 04:08:09;;;;;;;7.53;6.13;;;11.40;75.40;;;;;;5010634;28;20312;-46
2021/12/14 04:10:39;;;;;;;9.57;6.68;;;11.40;75.50;;;;;;5016333;28;20060;-46
2021/12/14 04:13:08;;;;;;;8.82;6.97;;;11.30;75.00;;;;;;5021065;28;20081;-48
2021/12/14 04:15:35;;;;;;;8.35;6.18;;;11.30;75.00;;;;;;5018907;28;20042;-46
2021/12/14 04:18:03;;;;;;;8.57;6.20;;;11.30;75.20;;;;;;5010308;28;20690;-48
2021/12/14 04:20:35;;;;;;;9.13;6.78;;;11.30;75.50;;;;;;5022273;28;20043;-46
2021/12/14 04:23:03;;;;;;;;;;;11.30;75.70;;;;;;5002094;28;20042;-46
2021/12/14 04:25:34;;;;;;;8.00;5.70;;;11.30;76.00;;;;;;5010692;28;19921;-46
2021/12/14 04:28:06;;;;;;;7.75;5.88;;;11.30;75.40;;;;;;5017186;28;20119;-49
2021/12/14 04:30:38;;;;;;;7.82;5.63;;;11.30;75.70;;;;;;4998917;28;20050;-47
2021/12/14 04:33:09;;;;;;;7.72;5.80;;;11.30;75.70;;;;;;5006125;28;20048;-46
2021/12/14 04:35:39;;;;;;;6.53;5.57;;;11.30;75.70;;;;;;5029918;28;20080;-45
2021/12/14 04:38:18;;;;;;;7.75;6.00;;;11.30;75.70;;;;;;5001672;28;20137;-46
2021/12/14 04:52:05;;;;;;;8.93;5.97;;;11.20;76.00;;;;;;5005625;28;20049;-47
2021/12/14 04:54:36;;;;;;;7.28;5.25;;;11.20;75.80;;;;;;4988914;28;20038;-46
2021/12/14 04:57:05;;;;;;;7.80;5.83;;;11.10;76.00;;;;;;5006011;28;20042;-45
2021/12/14 04:59:34;;;;;;;9.88;7.15;;;11.10;75.90;;;;;;5005110;28;20765;-46
2021/12/14 05:02:14;;;;;;;7.70;5.68;;;11.10;76.00;;;;;;5028267;28;20045;-45
2021/12/14 05:05:00;;;;;;;6.70;5.43;;;11.10;76.10;;;;;;5018249;28;20045;-45
2021/12/14 05:07:45;;;;;;;8.00;5.97;;;11.10;75.90;;;;;;4997347;28;20539;-48
2021/12/14 05:10:18;;;;;;;7.97;5.72;;;11.10;75.90;;;;;;5000645;28;20100;-46
2021/12/14 05:12:51;;;;;;;10.93;6.45;;;11.10;76.00;;;;;;5030000;28;20144;-47
2021/12/14 05:15:25;;;;;;;8.30;6.00;;;11.10;76.00;;;;;;4991618;28;20065;-45
2021/12/14 05:17:57;;;;;;;8.48;5.93;;;11.00;75.90;;;;;;5021067;28;20087;-45
2021/12/14 05:20:24;;;;;;;7.00;5.88;;;11.10;76.10;;;;;;5005839;28;20160;-47
2021/12/14 05:22:53;;;;;;;6.68;5.78;;;11.00;76.70;;;;;;5020277;28;20041;-49
2021/12/14 05:25:27;;;;;;;8.45;5.93;;;11.00;76.20;;;;;;5014217;28;20038;-49
2021/12/14 05:28:02;;;;;;;6.88;5.03;;;11.10;76.30;;;;;;5019472;28;20045;-49
2021/12/14 05:30:43;;;;;;;9.52;5.72;;;11.10;76.30;;;;;;4999662;28;20054;-48
2021/12/14 05:33:20;;;;;;;9.50;6.53;;;11.10;76.40;;;;;;5003857;28;20048;-47
2021/12/14 05:35:50;;;;;;;7.32;5.82;;;11.10;76.30;;;;;;5028660;28;20049;-49
2021/12/14 05:38:26;;;;;;;7.97;5.57;;;11.10;76.30;;;;;;5023718;28;20511;-49
2021/12/14 05:41:11;;;;;;;8.57;6.05;;;11.10;76.30;;;;;;5010556;28;20634;-49
2021/12/14 05:43:44;;;;;;;8.13;6.13;;;11.10;76.20;;;;;;4997730;28;20048;-50
2021/12/14 05:46:21;;;;;;;10.15;5.47;;;11.10;76.00;;;;;;5003171;28;20131;-46
2021/12/14 05:49:26;;;;;;;9.45;6.93;;;11.10;76.00;;;;;;4917535;28;20056;-49
2021/12/14 05:51:55;;;;;;;7.00;5.68;;;11.10;76.00;;;;;;5005361;28;20037;-48
2021/12/14 05:54:26;;;;;;;8.18;5.90;;;11.10;76.00;;;;;;4996537;28;20049;-48
2021/12/14 05:56:56;;;;;;;8.37;6.10;;;11.10;76.00;;;;;;4999765;28;20054;-49
2021/12/14 05:59:27;;;;;;;8.00;5.80;;;11.10;75.90;;;;;;5008639;28;20111;-47
2021/12/14 06:01:56;;;;;;;8.73;6.28;;;11.10;75.90;;;;;;5003279;28;20045;-47
2021/12/14 06:04:40;;;;;;;8.38;5.57;;;11.10;75.90;;;;;;5003808;28;20046;-49
2021/12/14 06:07:11;;;;;;;8.98;6.45;;;11.10;75.90;;;;;;5019665;28;20064;-47
2021/12/14 06:09:46;;;;;;;8.82;6.13;;;11.10;75.80;;;;;;5021360;28;20477;-46
2021/12/14 06:12:28;;;;;;;8.10;6.38;;;11.10;75.80;;;;;;5018975;28;20088;-45
2021/12/14 06:14:59;;;;;;;9.35;6.35;;;11.10;75.90;;;;;;5005914;28;20052;-50
2021/12/14 06:17:30;;;;;;;8.75;6.18;;;11.10;76.00;;;;;;4988029;28;20113;-48
2021/12/14 06:20:00;;;;;;;;;;;11.10;75.90;;;;;;5016668;28;20041;-49
2021/12/14 06:22:32;;;;;;;7.28;6.07;;;11.10;76.00;;;;;;4998412;28;19929;-49
2021/12/14 06:25:08;;;;;;;11.02;6.20;;;11.10;75.60;;;;;;5018227;28;20116;-50
2021/12/14 06:27:38;;;;;;;8.50;5.68;;;11.10;75.60;;;;;;4993582;28;20072;-49
2021/12/14 06:30:10;;;;;;;8.73;5.97;;;11.10;75.80;;;;;;5003184;28;20128;-49
2021/12/14 06:32:48;;;;;;;7.10;5.53;;;11.10;75.80;;;;;;5005806;28;20041;-46
2021/12/14 06:35:20;;;;;;;7.82;6.07;;;11.10;75.80;;;;;;5000807;28;20048;-48
2021/12/14 06:38:36;;;;;;;;;;;11.10;75.70;;;;;;4996190;28;20042;-46
2021/12/14 06:41:11;;;;;;;9.32;6.18;;;11.20;75.90;;;;;;4978047;28;19960;-45
2021/12/14 06:43:44;;;;;;;7.47;5.72;;;11.20;75.50;;;;;;5006025;28;20053;-45
2021/12/14 06:46:16;;;;;;;9.10;5.90;;;11.10;75.60;;;;;;4992759;28;20040;-46
2021/12/14 06:49:06;;;;;;;9.95;6.93;;;11.10;75.70;;;;;;5012150;28;20080;-46
2021/12/14 06:51:44;;;;;;;8.45;6.40;;;11.10;75.70;;;;;;5002773;28;20050;-46
2021/12/14 06:54:44;;;;;;;9.02;6.07;;;11.10;75.70;;;;;;4970109;28;20141;-45
2021/12/14 06:57:42;;;;;;;9.93;7.07;;;11.10;75.60;;;;;;4992834;28;20069;-45
2021/12/14 07:00:20;;;;;;;9.57;6.60;;;11.10;75.60;;;;;;5000254;28;20042;-45
2021/12/14 07:02:51;;;;;;;8.88;6.50;;;11.10;75.40;;;;;;5012348;28;20449;-45
2021/12/14 07:05:34;;;;;;;7.65;6.75;;;11.10;75.70;;;;;;5010617;28;20509;-47
2021/12/14 07:08:13;;;;;;;10.48;7.63;;;11.10;75.70;;;;;;5016294;28;20471;-46
2021/12/14 07:10:43;;;;;;;11.05;7.63;;;11.10;75.70;;;;;;5014572;28;20054;-47
2021/12/14 07:13:24;;;;;;;8.80;6.95;;;11.10;75.70;;;;;;5013854;28;20042;-45
2021/12/14 07:15:51;;;;;;;10.80;7.82;;;11.10;75.60;;;;;;4999537;28;20088;-45
2021/12/14 07:18:25;;;;;;;10.48;6.97;;;11.10;75.50;;;;;;5024030;28;20385;-49
2021/12/14 07:20:52;;;;;;;9.43;6.50;;;11.10;75.50;;;;;;5012284;28;20038;-49
2021/12/14 07:23:33;;;;;;;7.97;6.18;;;11.10;75.50;;;;;;5022407;28;20065;-50
2021/12/14 07:26:08;;;;;;;8.65;6.68;;;11.10;75.70;;;;;;5011550;28;20046;-50
2021/12/14 07:28:41;;;;;;;9.93;7.13;;;11.10;75.70;;;;;;5022809;28;20052;-49
2021/12/14 07:31:22;;;;;;;8.93;6.63;;;11.10;75.70;;;;;;5023377;28;20045;-49
2021/12/14 07:33:55;;;;;;;9.30;6.28;;;11.10;75.80;;;;;;5031440;28;20404;-47
2021/12/14 07:36:32;;;;;;;10.68;7.65;;;11.10;75.70;;;;;;5006749;28;20778;-49
2021/12/14 07:39:12;;;;;;;9.38;6.50;;;11.10;75.70;;;;;;4992413;28;20137;-49
2021/12/14 07:41:52;;;;;;;9.52;6.90;;;11.10;75.60;;;;;;5007774;28;20108;-48
2021/12/14 07:44:35;;;;;;;11.52;7.35;;;11.10;75.60;;;;;;4989646;28;20399;-46
2021/12/14 07:47:12;;;;;;;11.50;7.80;;;11.10;75.60;;;;;;4990851;28;20053;-47
2021/12/14 07:49:43;;;;;;;10.40;7.15;;;11.10;75.60;;;;;;5010673;28;20037;-45
2021/12/14 07:52:14;;;;;;;9.90;7.32;;;11.10;75.60;;;;;;5012305;28;20046;-46
2021/12/14 07:54:46;;;;;;;11.32;7.53;;;11.10;75.60;;;;;;5008503;28;20787;-46
2021/12/14 07:57:23;;;;;;;10.48;7.55;;;11.10;75.60;;;;;;4991416;28;20042;-47
2021/12/14 07:59:59;;;;;;;11.35;7.95;;;11.10;75.60;;;;;;5008014;28;20058;-46
2021/12/14 08:02:55;;;;;;;11.38;7.97;;;11.20;75.60;;;;;;5010898;28;20489;-45
2021/12/14 08:05:39;;;;;;;10.82;7.93;;;11.20;75.60;;;;;;5011120;28;20141;-46
2021/12/14 08:08:19;;;;;;;11.18;8.38;;;11.20;75.50;;;;;;5010217;28;20357;-46
2021/12/14 08:13:45;;;;;;;12.57;8.60;;;11.10;75.40;;;;;;5011359;28;20047;-46
2021/12/14 08:16:12;;;;;;;;;;;11.10;75.50;;;;;;5013381;28;20416;-45
2021/12/14 08:18:39;;;;;;;12.25;8.02;;;11.20;75.60;;;;;;5007936;28;19972;-45
2021/12/14 08:21:19;;;;;;;13.63;8.40;;;11.20;75.30;;;;;;5010115;28;20042;-47
2021/12/14 08:24:04;;;;;;;13.05;9.80;;;11.20;75.40;;;;;;5001896;28;20048;-46
2021/12/14 08:26:38;;;;;;;14.32;10.00;;;11.20;75.50;;;;;;5006634;28;20681;-47
2021/12/14 08:29:24;;;;;;;12.88;9.63;;;11.20;75.40;;;;;;4995985;28;20053;-48
2021/12/14 08:31:56;;;;;;;15.82;9.85;;;11.20;75.50;;;;;;5008782;28;20041;-47
2021/12/14 08:34:30;;;;;;;12.82;8.88;;;11.20;75.50;;;;;;5002122;28;20059;-46
2021/12/14 08:37:20;;;;;;;14.20;8.70;;;11.20;75.50;;;;;;5001402;28;20042;-46
2021/12/14 08:40:06;;;;;;;13.38;8.77;;;11.20;75.60;;;;;;4999437;28;20735;-48
2021/12/14 08:42:48;;;;;;;13.23;8.75;;;11.20;75.50;;;;;;5010843;28;20034;-46
2021/12/14 08:45:26;;;;;;;16.10;8.27;;;11.20;75.40;;;;;;5004798;28;20042;-50
2021/12/14 08:48:01;;;;;;;12.55;8.30;;;11.20;75.30;;;;;;5006481;28;20046;-47
2021/12/14 08:50:30;;;;;;;12.35;8.32;;;11.20;75.30;;;;;;5005793;28;20041;-50
2021/12/14 08:52:58;;;;;;;12.63;7.78;;;11.20;75.30;;;;;;5006965;28;20076;-50
2021/12/14 08:55:31;;;;;;;13.02;8.95;;;11.20;75.40;;;;;;5008577;28;20049;-50
2021/12/14 08:57:59;;;;;;;12.68;8.32;;;11.20;75.40;;;;;;4990706;28;20670;-47
2021/12/14 09:00:42;;;;;;;12.43;9.00;;;11.20;75.40;;;;;;5010477;28;20413;-46
2021/12/14 09:03:11;;;;;;;;;;;11.20;75.40;;;;;;5014392;28;20050;-51
2021/12/14 09:05:46;;;;;;;12.13;7.93;;;11.30;75.50;;;;;;5008400;28;19967;-46
2021/12/14 09:08:16;;;;;;;12.85;8.38;;;11.30;75.10;;;;;;4993784;28;20053;-46
2021/12/14 09:10:45;;;;;;;11.25;7.65;;;11.30;75.20;;;;;;5008887;28;20041;-45
2021/12/14 09:13:14;;;;;;;10.60;7.25;;;11.20;75.20;;;;;;4999868;28;20046;-49
2021/12/14 09:15:43;;;;;;;12.05;8.68;;;11.20;75.30;;;;;;5006010;28;20038;-45
2021/12/14 09:18:12;;;;;;;13.88;8.48;;;11.20;75.30;;;;;;5007753;28;20084;-49
2021/12/14 09:20:46;;;;;;;14.80;10.60;;;11.20;75.30;;;;;;5005938;28;20062;-46
2021/12/14 09:23:18;;;;;;;14.38;9.55;;;11.20;75.90;;;;;;4999366;28;20116;-46
2021/12/14 09:25:45;;;;;;;;;;;11.20;75.30;;;;;;5012451;28;20041;-46
2021/12/14 09:28:13;;;;;;;13.57;9.25;;;11.30;75.50;;;;;;5009418;28;20034;-46
2021/12/14 09:30:44;;;;;;;14.68;9.43;;;11.30;75.10;;;;;;4988942;28;20065;-45
2021/12/14 09:33:13;;;;;;;12.93;9.87;;;11.30;75.20;;;;;;5009413;28;20542;-47
2021/12/14 09:35:41;;;;;;;13.98;9.77;;;11.30;75.40;;;;;;4998683;28;20520;-46
2021/12/14 09:38:12;;;;;;;11.60;8.88;;;11.20;75.30;;;;;;5013020;28;20045;-50
2021/12/14 09:40:50;;;;;;;10.75;7.93;;;11.30;75.50;;;;;;5033671;23;20068;-75
2021/12/14 09:43:18;;;;;;;14.50;9.02;;;11.30;75.50;;;;;;5025152;28;20053;-75
2021/12/14 09:45:51;;;;;;;12.93;9.15;;;11.30;75.60;;;;;;5026082;28;20415;-75
2021/12/14 09:48:23;;;;;;;12.75;8.73;;;11.30;75.60;;;;;;5021283;28;20900;-75
2021/12/14 09:50:51;;;;;;;11.25;8.05;;;11.30;75.60;;;;;;4990021;28;20045;-75
2021/12/14 09:53:22;;;;;;;12.93;8.10;;;11.40;75.60;;;;;;5016211;28;20073;-75
2021/12/14 09:55:51;;;;;;;13.77;8.70;;;11.40;75.50;;;;;;5011023;28;20041;-75
2021/12/14 09:58:32;;;;;;;13.20;8.30;;;11.50;75.60;;;;;;4994440;28;20057;-75
2021/12/14 10:01:21;;;;;;;11.95;8.50;;;11.50;75.50;;;;;;5031525;28;20056;-75
2021/12/14 10:03:56;;;;;;;14.25;9.45;;;11.50;75.50;;;;;;5024911;28;20041;-75
2021/12/14 10:06:27;;;;;;;15.05;9.35;;;11.50;75.40;;;;;;5004494;28;20049;-75
2021/12/14 10:09:02;;;;;;;11.52;8.05;;;11.60;75.40;;;;;;5023481;28;20064;-75
2021/12/14 10:12:15;;;;;;;12.45;8.18;;;11.60;75.20;;;;;;4996983;28;20064;-75
2021/12/14 10:14:36;;;;;;;12.10;8.23;;;11.60;75.10;;;;;;5009520;28;20061;-75
2021/12/14 10:17:08;;;;;;;12.63;8.70;;;11.70;75.10;;;;;;5006426;28;20053;-75
2021/12/14 10:19:36;;;;;;;14.48;9.55;;;11.80;75.00;;;;;;5023767;28;20567;-74
2021/12/14 10:22:10;;;;;;;11.48;8.52;;;11.80;75.00;;;;;;4998984;28;20041;-75
2021/12/14 10:24:37;;;;;;;13.65;9.27;;;11.70;74.80;;;;;;5041172;28;20038;-75
2021/12/14 10:27:09;;;;;;;15.48;9.38;;;11.70;74.70;;;;;;5017326;28;20490;-75
2021/12/14 10:29:41;;;;;;;13.18;9.02;;;11.70;74.80;;;;;;5019834;28;20053;-75
2021/12/14 10:32:12;;;;;;;14.27;10.50;;;11.70;74.70;;;;;;4992242;28;20049;-75
2021/12/14 10:34:47;;;;;;;14.93;9.50;;;11.80;74.70;;;;;;4997593;28;20429;-75
2021/12/14 10:37:27;;;;;;;13.82;9.30;;;11.80;75.00;;;;;;5008348;28;20053;-75
2021/12/14 10:43:12;;;;;;;16.95;10.13;;;11.80;74.40;;;;;;4977868;28;20800;-75
2021/12/14 10:45:49;;;;;;;15.85;10.13;;;11.80;74.30;;;;;;4989225;28;20052;-75
2021/12/14 10:48:19;;;;;;;19.90;10.65;;;11.80;74.20;;;;;;4994046;28;20045;-75
2021/12/14 10:50:49;;;;;;;16.60;10.27;;;11.90;74.30;;;;;;5016467;28;20052;-74
2021/12/14 10:53:19;;;;;;;19.58;11.82;;;11.80;74.10;;;;;;4990875;28;20122;-76
2021/12/14 10:55:52;;;;;;;15.00;10.40;;;11.90;74.10;;;;;;5003327;28;20045;-76
2021/12/14 10:58:22;;;;;;;15.88;9.65;;;11.90;74.10;;;;;;4998638;28;20048;-76
2021/12/14 11:00:54;;;;;;;15.13;10.90;;;11.90;74.10;;;;;;4987173;28;20045;-76
2021/12/14 11:03:35;;;;;;;15.88;11.30;;;11.90;74.20;;;;;;5014053;28;20644;-76
2021/12/14 11:06:12;;;;;;;14.00;9.95;;;11.90;74.10;;;;;;4997539;28;20605;-76
2021/12/14 11:08:48;;;;;;;19.35;11.65;;;11.90;74.10;;;;;;5003866;28;20054;-78
2021/12/14 11:11:31;;;;;;;16.52;11.20;;;11.90;74.00;;;;;;4985842;28;20046;-75
2021/12/14 11:14:02;;;;;;;18.85;12.23;;;12.00;74.20;;;;;;4992188;28;20034;-74
2021/12/14 11:19:39;;;;;;;17.92;11.82;;;12.00;74.10;;;;;;5014476;28;20140;-75
2021/12/14 11:22:11;;;;;;;18.13;11.70;;;12.00;73.80;;;;;;5025192;28;20069;-75
2021/12/14 11:24:41;;;;;;;16.83;11.80;;;12.10;73.90;;;;;;4973094;28;20054;-74
2021/12/14 11:27:21;;;;;;;14.88;11.43;;;12.10;73.90;;;;;;4992579;28;20042;-74
2021/12/14 11:30:07;;;;;;;15.73;11.00;;;12.10;73.70;;;;;;4969245;23;20157;-46
2021/12/14 11:32:35;;;;;;;17.45;11.73;;;12.10;73.90;;;;;;4996530;28;20042;-49
2021/12/14 11:35:19;;;;;;;14.13;10.20;;;12.20;73.90;;;;;;5003266;28;20405;-46
2021/12/14 11:37:46;;;;;;;18.98;12.23;;;12.20;73.90;;;;;;4993712;28;20038;-48
2021/12/14 11:40:14;;;;;;;16.50;11.68;;;12.20;74.00;;;;;;4992664;28;20050;-46
2021/12/14 11:42:42;;;;;;;17.35;11.93;;;12.20;73.90;;;;;;5005808;28;20050;-50
2021/12/14 11:45:17;;;;;;;17.63;11.48;;;12.30;73.80;;;;;;4995842;28;20049;-49
2021/12/14 11:47:54;;;;;;;17.80;11.45;;;12.40;73.50;;;;;;5001747;28;20378;-45
2021/12/14 11:50:37;;;;;;;16.67;12.02;;;12.40;73.20;;;;;;5004056;28;20049;-50
2021/12/14 11:53:07;;;;;;;17.27;11.82;;;12.40;73.10;;;;;;4996227;28;20050;-48
2021/12/14 11:55:40;;;;;;;15.60;10.93;;;12.40;73.00;;;;;;5000635;28;20073;-46
2021/12/14 11:58:43;;;;;;;18.63;12.25;;;12.40;73.10;;;;;;4998004;28;20473;-46
2021/12/14 12:01:16;;;;;;;18.02;11.95;;;12.40;73.00;;;;;;4977616;28;20045;-50
2021/12/14 12:04:14;;;;;;;17.88;11.95;;;12.40;73.10;;;;;;5004366;28;20061;-50
2021/12/14 12:09:39;;;;;;;17.77;12.00;;;12.50;73.00;;;;;;4969797;28;20141;-47
2021/12/14 12:12:06;;;;;;;16.45;11.55;;;12.50;73.90;;;;;;4994624;28;20042;-50
2021/12/14 12:14:38;;;;;;;19.50;12.32;;;12.60;73.60;;;;;;5008089;28;20528;-47
2021/12/14 12:17:17;;;;;;;;;;;12.60;73.60;;;;;;4990822;28;20050;-50
2021/12/14 12:20:00;;;;;;;16.48;11.68;;;12.70;73.50;;;;;;4985458;28;19937;-47
2021/12/14 12:22:30;;;;;;;;;;;12.70;72.90;;;;;;5002100;28;20096;-50
2021/12/14 12:24:59;;;;;;;15.70;10.77;;;12.80;73.30;;;;;;4992801;28;19921;-46
2021/12/14 12:27:51;;;;;;;17.33;11.80;;;12.80;72.80;;;;;;4974939;28;20057;-46
2021/12/14 12:30:37;;;;;;;18.33;11.95;;;12.90;72.70;;;;;;4985736;28;20069;-51
2021/12/14 12:33:31;;;;;;;17.27;11.48;;;12.90;72.60;;;;;;4988366;28;20042;-46
2021/12/14 12:36:22;;;;;;;20.45;11.23;;;12.90;72.50;;;;;;4982931;28;20046;-50
2021/12/14 12:39:03;;;;;;;16.40;10.88;;;13.00;72.40;;;;;;4983813;28;20549;-50
2021/12/14 12:41:40;;;;;;;15.87;10.63;;;13.00;72.20;;;;;;4993169;28;20034;-46
2021/12/14 12:44:13;;;;;;;17.55;12.30;;;13.00;72.50;;;;;;4982731;28;20046;-50
2021/12/14 12:46:43;;;;;;;16.00;10.90;;;13.10;72.20;;;;;;4981963;28;20042;-49
2021/12/14 12:49:17;;;;;;;16.95;11.60;;;13.10;72.20;;;;;;4974912;28;20050;-47
2021/12/14 12:51:55;;;;;;;14.15;10.55;;;13.10;72.20;;;;;;4987824;28;20097;-49
2021/12/14 12:54:33;;;;;;;17.05;10.43;;;13.10;72.20;;;;;;4977369;28;20073;-46
2021/12/14 12:57:31;;;;;;;13.88;10.07;;;13.20;72.00;;;;;;4994649;28;20041;-46
2021/12/14 13:00:00;;;;;;;18.30;11.43;;;13.20;71.80;;;;;;4957238;28;20053;-46
2021/12/14 13:02:33;;;;;;;17.15;11.20;;;13.20;72.00;;;;;;4984353;28;20537;-47
2021/12/14 13:05:38;;;;;;;19.42;12.13;;;13.20;72.00;;;;;;4984861;28;20561;-49
2021/12/14 13:08:12;;;;;;;19.50;11.93;;;13.20;72.00;;;;;;4961756;28;20050;-50
2021/12/14 13:11:08;;;;;;;15.77;11.07;;;13.30;71.90;;;;;;4988864;28;20120;-49
2021/12/14 13:13:38;;;;;;;14.52;10.55;;;13.30;71.70;;;;;;4981616;28;20418;-47
2021/12/14 13:16:17;;;;;;;16.33;11.10;;;13.30;71.80;;;;;;4985868;28;20092;-49
2021/12/14 13:18:58;;;;;;;16.13;10.63;;;13.30;71.60;;;;;;4978207;28;20454;-50
2021/12/14 13:21:33;;;;;;;17.65;12.32;;;13.30;71.30;;;;;;4988485;28;20030;-47
2021/12/14 13:24:15;;;;;;;15.75;10.00;;;13.30;71.00;;;;;;4977947;28;20089;-46
2021/12/14 13:26:44;;;;;;;17.73;11.70;;;13.30;71.00;;;;;;4994819;28;20033;-47
2021/12/14 13:29:16;;;;;;;18.50;10.77;;;13.30;71.30;;;;;;4975694;28;20471;-50
2021/12/14 13:31:46;;;;;;;;;;;13.30;71.40;;;;;;4992115;28;20118;-50
2021/12/14 13:34:44;;;;;;;14.07;10.18;;;13.30;71.50;;;;;;4979702;28;20606;-50
2021/12/14 13:37:16;;;;;;;16.95;11.10;;;13.30;71.20;;;;;;4989390;28;20122;-47
2021/12/14 13:39:45;;;;;;;15.77;10.70;;;13.20;71.20;;;;;;4981315;28;20128;-50
2021/12/14 13:42:11;;;;;;;16.83;10.93;;;13.20;71.30;;;;;;4990801;28;20042;-49
2021/12/14 13:44:43;;;;;;;14.57;10.43;;;13.10;71.30;;;;;;4979976;28;20042;-49
2021/12/14 13:47:12;;;;;;;15.25;10.73;;;13.10;71.40;;;;;;4984650;28;20047;-48
2021/12/14 13:49:41;;;;;;;17.30;10.68;;;13.10;71.50;;;;;;4980148;28;20076;-46
2021/12/14 13:52:13;;;;;;;15.60;10.77;;;13.10;71.60;;;;;;4986721;28;20105;-49
2021/12/14 13:55:04;;;;;;;17.33;11.57;;;13.10;71.70;;;;;;4978689;28;20112;-48